Endicott, New York
Current Conditions -  °F | °C
As of 5:53 PM on Tuesday 21 Oct 2014 (Local Time) from KBGM Reporting Station
Overcast Overcast  
Wind Chill: 51°   Ceiling: 3900
Heat Index: 51°   Visibility: 10mi
Dew Point: 47°   Wind: 0mph
Humidity: 86%   Direction: NA
Pressure: 29.88"   Gusts: NA
Location:  42.1°N, 76.05°W
Report Text: KBGM 212153Z 00000KT 10SM OVC039 11/08 A2988 RMK AO2 RAB2058E41 SLP122 P0000 T01060083
Loading
Personal Weather Stations






























Interactive Weather Map New forecast layout! Learn more

10-Day Weather Forecast

Advertisements
Track Severe Weather on mobile